Time;durP1;ratioP1;P1;durP2;ratioP2;P2;SDS_P1;SDS_P2;PMS_P1;PMS_P2;Temp;Humidity;BMP_temperature;BMP_pressure;BME280_temperature;BME280_humidity;BME280_pressure;Samples;Min_cycle;Max_cycle;Signal;HPM_P1;HPM_P2
2023/05/26 00:01:52;;;;;;;;;;;;;;;21.23;56.42;100100.12;4368036;32;33891;-81
2023/05/26 00:04:21;;;;;;;;;;;;;;;21.16;56.54;100104.28;4356231;32;34641;-81
2023/05/26 00:06:54;;;;;;;;;;;;;;;21.03;57.07;100108.13;4368747;32;34155;-81
2023/05/26 00:09:23;;;;;;;;;;;;;;;21.09;56.77;100105.81;4366998;32;34383;-81
2023/05/26 00:11:51;;;;;;;;;;;;;;;21.20;56.31;100105.75;4368192;32;33607;-81
2023/05/26 00:14:19;;;;;;;;;;;;;;;20.96;57.09;100102.41;4371927;32;35407;-81
2023/05/26 00:16:47;;;;;;;;;;;;;;;20.93;57.12;100113.38;4369052;32;33704;-81
2023/05/26 00:19:17;;;;;;;;;;;;;;;20.92;56.95;100107.19;4366309;32;34141;-80
2023/05/26 00:21:45;;;;;;;;;;;;;;;20.82;57.35;100105.37;4350975;32;32647;-81
2023/05/26 00:24:15;;;;;;;;;;;;;;;20.99;56.94;100107.53;4371782;32;34495;-81
2023/05/26 00:26:44;;;;;;;;;;;;;;;21.08;56.54;100116.66;4366494;32;34007;-82
2023/05/26 00:29:13;;;;;;;;;;;;;;;21.12;56.13;100105.53;4368867;32;33946;-82
2023/05/26 00:31:55;;;;;;;;;;;;;;;21.07;56.55;100110.44;4367532;32;33501;-82
2023/05/26 00:34:22;;;;;;;;;;;;;;;21.13;56.25;100109.94;4367583;32;33030;-82
2023/05/26 00:36:50;;;;;;;;;;;;;;;21.00;56.50;100106.56;4367528;32;34306;-82
2023/05/26 00:39:18;;;;;;;;;;;;;;;21.01;56.63;100110.09;4368732;32;33680;-82
2023/05/26 00:41:47;;;;;;;;;;;;;;;20.89;57.07;100106.59;4355918;32;32275;-82
2023/05/26 00:44:15;;;;;;;;;;;;;;;21.01;56.55;100102.88;4367661;32;34111;-82
2023/05/26 00:46:42;;;;;;;;;;;;;;;20.97;56.75;100109.47;4366943;32;33833;-82
2023/05/26 00:49:11;;;;;;;;;;;;;;;20.93;56.73;100113.38;4371298;32;34269;-82
2023/05/26 00:51:38;;;;;;;;;;;;;;;20.82;56.93;100103.53;4366962;32;33239;-82
2023/05/26 00:54:06;;;;;;;;;;;;;;;20.69;57.64;100110.88;4354592;32;34740;-82
2023/05/26 00:56:35;;;;;;;;;;;;;;;20.83;57.19;100097.19;4354025;32;34588;-81
2023/05/26 00:59:03;;;;;;;;;;;;;;;20.84;56.93;100101.59;4366199;32;32948;-81
2023/05/26 01:01:31;;;;;;;;;;;;;;;20.61;57.63;100098.09;4365660;32;33802;-81
2023/05/26 01:03:59;;;;;;;;;;;;;;;20.51;58.11;100091.78;4364488;32;35499;-81
2023/05/26 01:06:27;;;;;;;;;;;;;;;20.56;57.71;100092.25;4360816;32;33137;-80
2023/05/26 01:08:55;;;;;;;;;;;;;;;20.40;58.18;100097.09;4367032;32;35092;-80
2023/05/26 01:11:34;;;;;;;;;;;;;;;20.08;59.35;100099.62;4368379;32;32127;-81
2023/05/26 01:14:23;;;;;;;;;;;;;;;20.30;58.72;100096.12;4355741;32;34044;-80
2023/05/26 01:17:12;;;;;;;;;;;;;;;20.51;57.79;100094.44;4366179;32;33177;-81
2023/05/26 01:19:58;;;;;;;;;;;;;;;20.40;58.18;100100.63;4360308;32;33594;-81
2023/05/26 01:22:37;;;;;;;;;;;;;;;20.36;58.43;100095.63;4365871;32;32227;-80
2023/05/26 01:25:28;;;;;;;;;;;;;;;20.40;58.26;100099.78;4364878;32;35495;-81
2023/05/26 01:27:56;;;;;;;;;;;;;;;20.33;58.27;100094.06;4368367;32;34283;-80
2023/05/26 01:30:25;;;;;;;;;;;;;;;20.11;59.12;100094.03;4366489;32;34213;-80
2023/05/26 01:32:53;;;;;;;;;;;;;;;20.25;58.44;100095.63;4368800;32;33150;-80
2023/05/26 01:35:21;;;;;;;;;;;;;;;20.20;58.63;100099.53;4362868;32;35175;-81
2023/05/26 01:37:48;;;;;;;;;;;;;;;20.25;58.61;100095.63;4371572;32;35091;-81
2023/05/26 01:40:16;;;;;;;;;;;;;;;20.24;58.54;100089.41;4364579;32;32955;-81
2023/05/26 01:42:55;;;;;;;;;;;;;;;20.27;58.47;100082.94;4370184;32;34316;-81
2023/05/26 01:45:25;;;;;;;;;;;;;;;20.19;58.59;100087.09;4370668;32;33862;-81
2023/05/26 01:47:57;;;;;;;;;;;;;;;20.14;58.79;100078.56;4365507;32;34343;-81
2023/05/26 01:50:29;;;;;;;;;;;;;;;20.11;58.79;100081.47;4368585;32;32687;-81
2023/05/26 01:52:57;;;;;;;;;;;;;;;20.12;58.98;100088.53;4380161;32;33007;-81
2023/05/26 01:55:26;;;;;;;;;;;;;;;20.21;58.48;100085.13;4365026;32;34053;-81
2023/05/26 01:57:54;;;;;;;;;;;;;;;20.13;58.69;100076.00;4351267;32;35038;-81
2023/05/26 02:00:25;;;;;;;;;;;;;;;20.15;58.73;100085.63;4351511;32;34692;-81
2023/05/26 02:02:53;;;;;;;;;;;;;;;20.09;58.85;100090.63;4347839;32;33840;-81
2023/05/26 02:05:22;;;;;;;;;;;;;;;20.05;58.89;100087.34;4355089;32;35028;-81
2023/05/26 02:07:51;;;;;;;;;;;;;;;20.14;58.29;100089.28;4359432;32;33421;-81
2023/05/26 02:10:19;;;;;;;;;;;;;;;20.15;58.23;100085.63;4359816;32;33755;-81
2023/05/26 02:12:47;;;;;;;;;;;;;;;20.03;58.50;100086.59;4359245;32;33694;-81
2023/05/26 02:15:16;;;;;;;;;;;;;;;19.96;58.79;100080.03;4364619;32;34123;-81
2023/05/26 02:17:44;;;;;;;;;;;;;;;19.98;58.56;100083.41;4327861;32;33320;-81
2023/05/26 02:20:11;;;;;;;;;;;;;;;19.91;58.89;100082.22;4364602;32;33757;-82
2023/05/26 02:22:39;;;;;;;;;;;;;;;19.91;58.85;100082.22;4331334;32;32339;-81
2023/05/26 02:25:08;;;;;;;;;;;;;;;19.98;58.72;100086.09;4361811;32;33788;-81
2023/05/26 02:27:35;;;;;;;;;;;;;;;19.97;58.69;100081.72;4352655;32;33887;-81
2023/05/26 02:30:04;;;;;;;;;;;;;;;19.86;59.18;100087.06;4353261;32;34461;-81
2023/05/26 02:32:34;;;;;;;;;;;;;;;19.77;59.37;100085.97;4356462;32;33271;-81
2023/05/26 02:35:03;;;;;;;;;;;;;;;19.73;59.60;100083.63;4358367;32;33859;-81
2023/05/26 02:37:33;;;;;;;;;;;;;;;19.72;59.63;100089.97;4359668;32;32920;-81
2023/05/26 02:40:04;;;;;;;;;;;;;;;19.74;59.36;100080.81;4360608;32;34605;-81
2023/05/26 02:42:33;;;;;;;;;;;;;;;19.89;58.61;100079.66;4359290;32;33105;-81
2023/05/26 02:45:02;;;;;;;;;;;;;;;19.69;59.46;100089.22;4352216;32;33433;-81
2023/05/26 02:47:31;;;;;;;;;;;;;;;19.57;59.50;100084.78;4335211;32;33351;-81
2023/05/26 02:49:58;;;;;;;;;;;;;;;19.75;58.88;100087.03;4356194;32;34167;-81
2023/05/26 02:52:27;;;;;;;;;;;;;;;19.65;59.07;100087.78;4349088;32;34291;-81
2023/05/26 02:54:55;;;;;;;;;;;;;;;19.57;59.30;100084.78;4362229;32;33585;-81
2023/05/26 02:57:23;;;;;;;;;;;;;;;19.52;59.72;100094.16;4361276;32;33868;-81
2023/05/26 02:59:50;;;;;;;;;;;;;;;19.46;59.73;100087.41;4364422;32;34418;-81
2023/05/26 03:02:18;;;;;;;;;;;;;;;19.35;60.34;100090.91;4356764;32;33372;-81
2023/05/26 03:04:48;;;;;;;;;;;;;;;19.44;59.76;100094.72;4364282;32;33938;-81
2023/05/26 03:07:15;;;;;;;;;;;;;;;19.52;59.68;100100.34;4358221;32;35010;-81
2023/05/26 03:09:43;;;;;;;;;;;;;;;19.41;60.14;100092.25;4352425;32;35173;-81
2023/05/26 03:12:15;;;;;;;;;;;;;;;19.32;60.37;100100.97;4342986;32;33640;-81
2023/05/26 03:14:43;;;;;;;;;;;;;;;19.14;61.05;100104.09;4356902;32;34654;-81
2023/05/26 03:17:11;;;;;;;;;;;;;;;19.17;60.99;100093.12;4342050;32;36818;-81
2023/05/26 03:19:39;;;;;;;;;;;;;;;19.41;60.00;100094.94;4366119;32;34751;-81
2023/05/26 03:22:07;;;;;;;;;;;;;;;19.47;59.84;100099.00;4358354;32;33484;-81
2023/05/26 03:24:54;;;;;;;;;;;;;;;19.37;59.77;100102.38;4357117;32;33790;-81
2023/05/26 03:27:23;;;;;;;;;;;;;;;19.45;59.80;100107.12;4356896;32;33789;-81
2023/05/26 03:29:51;;;;;;;;;;;;;;;19.37;60.27;100105.06;4358161;32;34422;-81
2023/05/26 03:32:18;;;;;;;;;;;;;;;19.41;59.82;100105.66;4362273;32;32594;-81
2023/05/26 03:34:47;;;;;;;;;;;;;;;19.29;60.65;100103.91;4343053;32;34087;-81
2023/05/26 03:37:17;;;;;;;;;;;;;;;19.42;60.30;100118.09;4355314;32;34887;-81
2023/05/26 03:39:45;;;;;;;;;;;;;;;19.38;60.20;100111.25;4356605;32;34453;-80
2023/05/26 03:42:13;;;;;;;;;;;;;;;19.51;60.36;100112.00;4358238;32;33584;-81
2023/05/26 03:44:40;;;;;;;;;;;;;;;19.54;nan;100109.13;4330991;32;32825;-81
2023/05/26 03:47:09;;;;;;;;;;;;;;;19.63;59.72;100108.44;4366651;32;34244;-80
2023/05/26 03:49:37;;;;;;;;;;;;;;;19.90;59.03;100107.31;4355765;32;34545;-80
2023/05/26 03:54:41;;;;;;;;;;;;;;;19.94;59.79;100112.31;4356581;32;33873;-80
2023/05/26 03:57:11;;;;;;;;;;;;;;;20.15;59.35;100111.59;4355131;32;34653;-80
2023/05/26 03:59:49;;;;;;;;;;;;;;;20.08;59.18;100110.34;4363449;32;33531;-81
2023/05/26 04:02:19;;;;;;;;;;;;;;;20.30;58.92;100112.22;4353043;32;32917;-81
2023/05/26 04:04:47;;;;;;;;;;;;;;;20.54;57.95;100117.47;4357632;32;34150;-81
2023/05/26 04:07:16;;;;;;;;;;;;;;;20.53;58.03;100110.41;4354004;32;33844;-81
2023/05/26 04:09:44;;;;;;;;;;;;;;;20.46;58.18;100120.72;4362759;32;33896;-81
2023/05/26 04:12:12;;;;;;;;;;;;;;;20.24;58.65;100126.09;4360844;32;33562;-80
2023/05/26 04:14:42;;;;;;;;;;;;;;;20.28;58.67;100117.69;4354419;32;33457;-80
2023/05/26 04:17:12;;;;;;;;;;;;;;;20.51;58.23;100123.97;4330637;32;33894;-81
2023/05/26 04:19:47;;;;;;;;;;;;;;;20.65;57.67;100118.34;4367688;32;33787;-82
2023/05/26 04:22:16;;;;;;;;;;;;;;;20.60;57.46;100123.19;4359284;32;32570;-81
2023/05/26 04:24:44;;;;;;;;;;;;;;;20.79;56.95;100121.72;4345499;32;34858;-81
2023/05/26 04:27:11;;;;;;;;;;;;;;;20.90;56.71;100127.09;4341927;32;32277;-81
2023/05/26 04:29:41;;;;;;;;;;;;;;;20.86;56.79;100121.09;4358502;32;33875;-81
2023/05/26 04:32:15;;;;;;;;;;;;;;;21.11;55.92;100125.31;4354550;32;33810;-81
2023/05/26 04:34:45;;;;;;;;;;;;;;;21.28;55.65;100123.06;4355330;32;32898;-82
2023/05/26 04:37:16;;;;;;;;;;;;;;;21.38;55.26;100122.22;4355793;32;34362;-81
2023/05/26 04:39:44;;;;;;;;;;;;;;;21.47;54.97;100118.75;4342446;32;34783;-82
2023/05/26 04:42:12;;;;;;;;;;;;;;;21.30;55.90;100123.78;4351769;32;33291;-82
2023/05/26 04:44:43;;;;;;;;;;;;;;;21.36;55.74;100125.97;4347644;32;34298;-80
2023/05/26 04:47:12;;;;;;;;;;;;;;;21.23;56.02;100127.00;4342295;32;33614;-81
2023/05/26 04:49:46;;;;;;;;;;;;;;;21.53;54.75;100121.91;4355757;32;35629;-81
2023/05/26 04:52:16;;;;;;;;;;;;;;;21.67;54.14;100122.44;4353796;32;33487;-81
2023/05/26 04:54:44;;;;;;;;;;;;;;;21.26;55.43;100133.06;4353279;32;33135;-82
2023/05/26 04:57:15;;;;;;;;;;;;;;;21.31;55.64;100125.53;4355723;32;33975;-81
2023/05/26 04:59:47;;;;;;;;;;;;;;;21.64;54.48;100121.84;4366087;32;33434;-80
2023/05/26 05:02:15;;;;;;;;;;;;;;;21.41;55.09;100129.13;4359258;32;33745;-81
2023/05/26 05:04:45;;;;;;;;;;;;;;;21.32;54.97;100130.78;4367704;32;32166;-81
2023/05/26 05:07:14;;;;;;;;;;;;;;;21.58;54.70;100125.91;4356048;32;33014;-81
2023/05/26 05:09:44;;;;;;;;;;;;;;;20.98;56.27;100127.28;4359879;32;33536;-82
2023/05/26 05:12:12;;;;;;;;;;;;;;;21.17;55.81;100132.88;4365416;32;33311;-81
2023/05/26 05:14:42;;;;;;;;;;;;;;;21.35;55.56;100135.87;4363350;32;33220;-80
2023/05/26 05:17:12;;;;;;;;;;;;;;;21.59;54.97;100126.75;4366017;32;33966;-81
2023/05/26 05:19:41;;;;;;;;;;;;;;;21.71;54.48;100131.09;4364712;32;34467;-81
2023/05/26 05:22:09;;;;;;;;;;;;;;;21.91;54.09;100127.56;4365703;32;34155;-81
2023/05/26 05:24:42;;;;;;;;;;;;;;;22.01;53.76;100133.00;4352713;32;34866;-80
2023/05/26 05:27:11;;;;;;;;;;;;;;;21.96;54.12;100124.47;4365016;32;34649;-80
2023/05/26 05:29:38;;;;;;;;;;;;;;;21.67;55.17;100135.87;4364231;32;33242;-81
2023/05/26 05:32:08;;;;;;;;;;;;;;;21.66;54.69;100136.88;4354202;32;34604;-81
2023/05/26 05:34:39;;;;;;;;;;;;;;;21.84;53.96;100129.06;4366915;32;33930;-81
2023/05/26 05:37:15;;;;;;;;;;;;;;;21.77;54.46;100135.09;4367508;32;34667;-82
2023/05/26 05:39:45;;;;;;;;;;;;;;;21.80;54.10;100134.84;4353771;32;32805;-82
2023/05/26 05:42:13;;;;;;;;;;;;;;;22.05;53.63;100129.06;4364711;32;33156;-82
2023/05/26 05:44:41;;;;;;;;;;;;;;;22.06;53.56;100136.13;4366398;32;34625;-82
2023/05/26 05:47:10;;;;;;;;;;;;;;;22.02;53.81;100134.69;4366903;32;33882;-82
2023/05/26 05:49:42;;;;;;;;;;;;;;;22.47;53.41;100137.94;4367747;32;34881;-83
2023/05/26 05:52:10;;;;;;;;;;;;;;;22.52;53.04;100136.69;4364445;32;32848;-82
2023/05/26 05:54:38;;;;;;;;;;;;;;;22.74;52.97;100137.34;4368139;32;33800;-83
2023/05/26 05:57:07;;;;;;;;;;;;;;;23.02;51.66;100140.25;4365381;32;34657;-82
2023/05/26 05:59:38;;;;;;;;;;;;;;;23.15;51.42;100151.63;4355089;32;33121;-82
2023/05/26 06:02:06;;;;;;;;;;;;;;;22.90;52.69;100149.47;4370012;32;35181;-82
2023/05/26 06:04:35;;;;;;;;;;;;;;;23.20;51.05;100143.13;4369155;32;33728;-82
2023/05/26 06:07:03;;;;;;;;;;;;;;;23.00;51.58;100153.03;4368830;32;33762;-82
2023/05/26 06:09:33;;;;;;;;;;;;;;;22.91;51.90;100160.09;4356277;32;33772;-82
2023/05/26 06:12:05;;;;;;;;;;;;;;;22.85;51.79;100157.06;4367763;32;32991;-81
2023/05/26 06:14:33;;;;;;;;;;;;;;;22.72;52.24;100160.84;4364862;32;33199;-80
2023/05/26 06:17:01;;;;;;;;;;;;;;;22.66;52.69;100165.94;4363990;32;34214;-81
2023/05/26 06:19:33;;;;;;;;;;;;;;;23.21;51.82;100156.47;4355499;32;34765;-81
2023/05/26 06:22:01;;;;;;;;;;;;;;;23.50;50.29;100161.06;4372182;32;34397;-81
2023/05/26 06:24:29;;;;;;;;;;;;;;;23.56;51.61;100163.19;4367693;32;33513;-81
2023/05/26 06:26:58;;;;;;;;;;;;;;;23.70;50.59;100157.41;4362418;32;33946;-81
2023/05/26 06:29:26;;;;;;;;;;;;;;;23.58;51.46;100171.97;4371364;32;33008;-81
2023/05/26 06:31:54;;;;;;;;;;;;;;;23.90;50.05;100160.06;4368957;32;33962;-81
2023/05/26 06:34:22;;;;;;;;;;;;;;;24.16;47.74;100163.84;4370788;32;33483;-81
2023/05/26 06:36:55;;;;;;;;;;;;;;;23.76;50.22;100162.22;4373696;32;33377;-81
2023/05/26 06:39:25;;;;;;;;;;;;;;;23.96;50.68;100154.09;4343333;32;34256;-81
2023/05/26 06:41:56;;;;;;;;;;;;;;;24.00;49.51;100158.22;4370512;32;33989;-81
2023/05/26 06:44:26;;;;;;;;;;;;;;;24.08;49.10;100154.81;4354094;32;33972;-81
2023/05/26 06:46:55;;;;;;;;;;;;;;;24.35;48.35;100156.69;4367758;32;35050;-81
2023/05/26 06:49:23;;;;;;;;;;;;;;;24.51;47.32;100162.37;4365318;32;33682;-81
2023/05/26 06:51:57;;;;;;;;;;;;;;;24.63;48.46;100166.56;4362789;32;33392;-81
2023/05/26 06:54:25;;;;;;;;;;;;;;;24.70;48.44;100156.91;4364755;32;33945;-81
2023/05/26 06:56:55;;;;;;;;;;;;;;;24.91;48.49;100163.88;4365135;32;34136;-81
2023/05/26 06:59:25;;;;;;;;;;;;;;;25.18;48.02;100161.22;4362790;32;35091;-81
2023/05/26 07:01:54;;;;;;;;;;;;;;;25.06;47.85;100169.63;4362142;32;33407;-81
2023/05/26 07:04:22;;;;;;;;;;;;;;;25.08;48.21;100168.53;4362966;32;34211;-81
2023/05/26 07:06:50;;;;;;;;;;;;;;;25.09;47.67;100166.66;4339804;32;33029;-81
2023/05/26 07:09:19;;;;;;;;;;;;;;;25.33;47.72;100163.38;4355607;32;34041;-81
2023/05/26 07:11:51;;;;;;;;;;;;;;;25.69;46.13;100173.22;4354363;32;33454;-81
2023/05/26 07:14:20;;;;;;;;;;;;;;;25.84;45.49;100170.00;4361356;32;33700;-81
2023/05/26 07:16:48;;;;;;;;;;;;;;;25.98;41.65;100164.88;4357426;32;33947;-81
2023/05/26 07:19:17;;;;;;;;;;;;;;;26.15;42.16;100163.09;4355848;32;34866;-81
2023/05/26 07:21:51;;;;;;;;;;;;;;;26.05;43.21;100165.06;4361731;32;31971;-81
2023/05/26 07:24:19;;;;;;;;;;;;;;;25.83;42.11;100162.84;4372333;32;33605;-81
2023/05/26 07:26:48;;;;;;;;;;;;;;;25.79;40.70;100165.03;4354822;32;34266;-81
2023/05/26 07:29:17;;;;;;;;;;;;;;;25.37;42.39;100165.63;4357492;32;34689;-81
2023/05/26 07:31:50;;;;;;;;;;;;;;;25.66;42.76;100175.38;4362328;32;34109;-81
2023/05/26 07:34:18;;;;;;;;;;;;;;;25.99;41.76;100160.28;4356804;32;33811;-81
2023/05/26 07:36:47;;;;;;;;;;;;;;;26.24;41.62;100170.28;4355482;32;34041;-82
2023/05/26 07:39:16;;;;;;;;;;;;;;;26.23;41.60;100165.87;4362125;32;33023;-81
2023/05/26 07:41:44;;;;;;;;;;;;;;;26.25;40.46;100161.19;4354701;32;32965;-82
2023/05/26 07:44:12;;;;;;;;;;;;;;;26.12;41.57;100160.75;4354898;32;33779;-81
2023/05/26 07:46:39;;;;;;;;;;;;;;;26.63;40.25;100163.59;4361516;32;33129;-81
2023/05/26 07:49:08;;;;;;;;;;;;;;;26.64;40.92;100159.91;4353692;32;34161;-81
2023/05/26 07:51:37;;;;;;;;;;;;;;;26.37;40.70;100160.91;4355274;32;31861;-81
2023/05/26 07:54:07;;;;;;;;;;;;;;;26.68;40.72;100167.53;4353407;32;35088;-81
2023/05/26 07:56:36;;;;;;;;;;;;;;;26.69;39.51;100161.09;4355756;32;34282;-81
2023/05/26 07:59:05;;;;;;;;;;;;;;;26.73;40.41;100159.78;4354831;32;33615;-82
2023/05/26 08:01:37;;;;;;;;;;;;;;;26.58;38.42;100160.53;4346785;32;32075;-81
2023/05/26 08:04:08;;;;;;;;;;;;;;;26.93;37.15;100154.94;4348382;32;34821;-81
2023/05/26 08:06:35;;;;;;;;;;;;;;;26.80;37.60;100163.50;4349482;32;34029;-81
2023/05/26 08:09:04;;;;;;;;;;;;;;;27.07;36.21;100167.00;4339838;32;32857;-81
2023/05/26 08:11:34;;;;;;;;;;;;;;;26.59;36.99;100157.69;4351208;32;33910;-82
2023/05/26 08:14:05;;;;;;;;;;;;;;;26.91;35.94;100164.22;4352017;32;33243;-82
2023/05/26 08:16:34;;;;;;;;;;;;;;;27.25;36.12;100165.06;4353042;32;33899;-82
2023/05/26 08:19:03;;;;;;;;;;;;;;;27.32;35.47;100170.66;4354092;32;34767;-82
2023/05/26 08:21:31;;;;;;;;;;;;;;;27.11;35.98;100168.41;4352266;32;33460;-82
2023/05/26 08:24:06;;;;;;;;;;;;;;;27.07;35.47;100164.31;4351959;32;34501;-81
2023/05/26 08:26:36;;;;;;;;;;;;;;;27.42;35.57;100165.94;4347489;32;34439;-82
2023/05/26 08:29:06;;;;;;;;;;;;;;;27.70;36.28;100163.75;4350660;32;34001;-81
2023/05/26 08:31:33;;;;;;;;;;;;;;;27.55;35.33;100160.03;4350686;32;34317;-82
2023/05/26 08:34:06;;;;;;;;;;;;;;;27.70;34.70;100152.06;4352820;32;34246;-82
2023/05/26 08:36:35;;;;;;;;;;;;;;;28.03;37.05;100156.50;4342135;32;34321;-82
2023/05/26 08:39:03;;;;;;;;;;;;;;;28.20;32.81;100153.75;4352144;32;34288;-81
2023/05/26 08:41:53;;;;;;;;;;;;;;;27.53;35.30;100156.63;4352469;32;33670;-81
2023/05/26 08:44:21;;;;;;;;;;;;;;;27.89;33.81;100159.06;4354027;32;32634;-82
2023/05/26 08:46:57;;;;;;;;;;;;;;;27.63;35.62;100162.75;4338386;32;33710;-81
2023/05/26 08:49:26;;;;;;;;;;;;;;;28.07;35.03;100159.72;4351067;32;34089;-82
2023/05/26 08:52:04;;;;;;;;;;;;;;;27.89;34.82;100156.34;4347729;32;32720;-82
2023/05/26 08:54:32;;;;;;;;;;;;;;;28.28;34.28;100164.59;4345173;32;34203;-82
2023/05/26 08:57:02;;;;;;;;;;;;;;;28.13;34.57;100148.16;4348475;32;34288;-82
2023/05/26 08:59:31;;;;;;;;;;;;;;;28.21;34.21;100156.31;4349709;32;34344;-82
2023/05/26 09:02:00;;;;;;;;;;;;;;;28.53;34.73;100159.97;4347361;32;33300;-82
2023/05/26 09:04:31;;;;;;;;;;;;;;;28.31;35.32;100146.09;4350667;32;34299;-82
2023/05/26 09:06:59;;;;;;;;;;;;;;;28.25;35.36;100152.25;4339739;32;33175;-82
2023/05/26 09:09:47;;;;;;;;;;;;;;;28.16;37.71;100145.13;4351972;32;34379;-82
2023/05/26 09:12:16;;;;;;;;;;;;;;;28.01;37.57;100144.09;4350623;32;33498;-82
2023/05/26 09:14:46;;;;;;;;;;;;;;;28.43;36.63;100143.03;4350472;32;34776;-81
2023/05/26 09:17:15;;;;;;;;;;;;;;;28.62;35.06;100137.22;4350336;32;34175;-81
2023/05/26 09:19:43;;;;;;;;;;;;;;;28.16;36.56;100142.41;4352129;32;35380;-82
2023/05/26 09:22:13;;;;;;;;;;;;;;;28.30;36.28;100147.12;4325810;32;32507;-81
2023/05/26 09:24:47;;;;;;;;;;;;;;;27.78;34.99;100144.81;4351811;32;33952;-82
2023/05/26 09:27:17;;;;;;;;;;;;;;;27.99;35.16;100147.00;4345974;32;33579;-82
2023/05/26 09:29:46;;;;;;;;;;;;;;;28.65;36.41;100145.00;4351306;32;34126;-82
2023/05/26 09:32:15;;;;;;;;;;;;;;;28.74;34.75;100146.69;4348334;32;33676;-82
2023/05/26 09:34:49;;;;;;;;;;;;;;;29.18;34.16;100146.16;4350401;32;32910;-82
2023/05/26 09:37:24;;;;;;;;;;;;;;;29.23;35.57;100135.56;4347378;32;35140;-82
2023/05/26 09:39:54;;;;;;;;;;;;;;;29.58;37.39;100138.78;4349472;32;33975;-82
2023/05/26 09:45:03;;;;;;;;;;;;;;;29.92;35.64;100132.03;4349150;32;34720;-82
2023/05/26 09:47:35;;;;;;;;;;;;;;;29.78;35.93;100134.53;4348832;32;34880;-82
2023/05/26 09:50:04;;;;;;;;;;;;;;;29.58;35.29;100133.34;4351365;32;34182;-82
2023/05/26 09:52:37;;;;;;;;;;;;;;;29.73;35.74;100130.66;4340917;33;34030;-82
2023/05/26 09:55:06;;;;;;;;;;;;;;;29.30;35.42;100125.69;4351518;32;33452;-82
2023/05/26 09:57:36;;;;;;;;;;;;;;;28.56;36.46;100127.06;4359463;32;35041;-82
2023/05/26 10:00:10;;;;;;;;;;;;;;;28.83;35.70;100133.91;4352964;32;34736;-82
2023/05/26 10:02:40;;;;;;;;;;;;;;;28.86;36.28;100136.25;4354889;32;33366;-82
2023/05/26 10:05:08;;;;;;;;;;;;;;;29.59;34.37;100121.44;4353510;32;34188;-82
2023/05/26 10:07:36;;;;;;;;;;;;;;;29.47;35.92;100125.56;4354936;32;34634;-82
2023/05/26 10:10:05;;;;;;;;;;;;;;;29.63;34.70;100130.91;4356242;32;34885;-82
2023/05/26 10:12:38;;;;;;;;;;;;;;;29.93;35.46;100125.56;4355166;32;33213;-82
2023/05/26 10:15:07;;;;;;;;;;;;;;;29.66;36.80;100133.25;4360668;32;33234;-82
2023/05/26 10:17:36;;;;;;;;;;;;;;;29.62;34.85;100123.75;4367430;32;34081;-82
2023/05/26 10:20:09;;;;;;;;;;;;;;;29.03;35.85;100131.63;4356560;32;33900;-82
2023/05/26 10:22:54;;;;;;;;;;;;;;;28.84;36.12;100124.72;4362039;32;32936;-82
2023/05/26 10:25:22;;;;;;;;;;;;;;;28.88;36.22;100133.38;4367791;32;34106;-82
2023/05/26 10:27:57;;;;;;;;;;;;;;;28.50;36.90;100127.75;4367810;32;34072;-82
2023/05/26 10:30:26;;;;;;;;;;;;;;;29.09;36.16;100120.03;4366261;32;35246;-82
2023/05/26 10:32:56;;;;;;;;;;;;;;;29.08;36.27;100124.63;4343546;32;32777;-82
2023/05/26 10:35:29;;;;;;;;;;;;;;;28.89;37.09;100125.03;4349103;32;34092;-82
2023/05/26 10:38:03;;;;;;;;;;;;;;;29.12;36.78;100114.25;4361583;32;35136;-82
2023/05/26 10:40:46;;;;;;;;;;;;;;;29.94;37.56;100116.34;4366541;32;34715;-82
2023/05/26 10:43:33;;;;;;;;;;;;;;;30.35;34.57;100109.47;4342985;32;32777;-82
2023/05/26 10:46:01;;;;;;;;;;;;;;;30.08;36.13;100102.75;4354884;32;34751;-82
2023/05/26 10:48:36;;;;;;;;;;;;;;;30.42;34.26;100100.53;4353768;32;33916;-82
2023/05/26 10:51:14;;;;;;;;;;;;;;;29.92;35.58;100099.38;4353734;32;34731;-82
2023/05/26 10:53:46;;;;;;;;;;;;;;;30.14;36.54;100095.75;4370055;32;33335;-82
2023/05/26 10:56:18;;;;;;;;;;;;;;;30.17;37.12;100095.38;4353297;32;33394;-82
2023/05/26 10:58:47;;;;;;;;;;;;;;;30.55;35.60;100098.84;4346878;32;35239;-82
2023/05/26 11:01:19;;;;;;;;;;;;;;;30.41;35.77;100101.59;4346567;32;33776;-82
2023/05/26 11:03:49;;;;;;;;;;;;;;;30.42;34.94;100097.81;4344654;32;33339;-82
2023/05/26 11:06:17;;;;;;;;;;;;;;;30.71;33.64;100095.09;4345988;32;34611;-82
2023/05/26 11:08:50;;;;;;;;;;;;;;;30.79;33.40;100102.34;4346641;32;34106;-83
2023/05/26 11:11:29;;;;;;;;;;;;;;;30.25;34.91;100095.31;4346826;32;34468;-82
2023/05/26 11:14:04;;;;;;;;;;;;;;;30.53;34.80;100094.66;4353383;32;33301;-82
2023/05/26 11:16:35;;;;;;;;;;;;;;;30.37;33.96;100094.81;4350041;32;33779;-82
2023/05/26 11:19:04;;;;;;;;;;;;;;;30.64;33.91;100091.41;4344430;32;34017;-82
2023/05/26 11:21:38;;;;;;;;;;;;;;;30.58;33.38;100086.75;4346486;32;34346;-82
2023/05/26 11:24:10;;;;;;;;;;;;;;;30.03;34.30;100079.84;4353272;32;33245;-82
2023/05/26 11:26:38;;;;;;;;;;;;;;;29.55;34.50;100095.59;4346032;32;34176;-82
2023/05/26 11:29:12;;;;;;;;;;;;;;;29.96;35.22;100079.75;4351894;32;34115;-82
2023/05/26 11:31:47;;;;;;;;;;;;;;;30.29;34.15;100085.72;4352008;32;35393;-82
2023/05/26 11:34:15;;;;;;;;;;;;;;;30.06;35.04;100082.22;4344446;32;33060;-82
2023/05/26 11:39:24;;;;;;;;;;;;;;;30.72;34.15;100077.72;4352547;32;33523;-83
2023/05/26 11:42:10;;;;;;;;;;;;;;;30.24;34.13;100077.28;4354380;32;33991;-82
2023/05/26 11:44:42;;;;;;;;;;;;;;;30.37;33.74;100070.31;4342980;32;33701;-82
2023/05/26 11:47:14;;;;;;;;;;;;;;;30.60;34.45;100063.69;4346179;32;32708;-82
2023/05/26 11:49:49;;;;;;;;;;;;;;;29.45;34.67;100060.47;4351318;32;33743;-82
2023/05/26 11:52:17;;;;;;;;;;;;;;;30.22;34.31;100071.16;4327961;32;816532;-82
2023/05/26 11:54:46;;;;;;;;;;;;;;;30.60;33.87;100060.13;4364531;32;32502;-82
2023/05/26 11:57:24;;;;;;;;;;;;;;;29.78;34.67;100052.88;4350702;32;34176;-82
2023/05/26 11:59:53;;;;;;;;;;;;;;;30.53;34.38;100049.16;4366147;32;33970;-82
2023/05/26 12:02:21;;;;;;;;;;;;;;;30.23;34.80;100044.75;4368246;32;34416;-82
2023/05/26 12:04:51;;;;;;;;;;;;;;;30.53;34.94;100049.16;4378766;32;33997;-82
2023/05/26 12:07:30;;;;;;;;;;;;;;;30.70;35.31;100044.31;4366434;32;34961;-82
2023/05/26 12:10:03;;;;;;;;;;;;;;;31.11;33.11;100041.03;4365521;32;34270;-83
2023/05/26 12:12:33;;;;;;;;;;;;;;;30.95;32.90;100035.81;4367327;32;35708;-83
2023/05/26 12:15:07;;;;;;;;;;;;;;;30.63;33.81;100035.22;4363395;32;34149;-83
2023/05/26 12:17:42;;;;;;;;;;;;;;;30.58;33.44;100034.97;4367182;32;33973;-82
2023/05/26 12:20:18;;;;;;;;;;;;;;;29.73;35.02;100025.38;4366842;32;33919;-82
2023/05/26 12:23:08;;;;;;;;;;;;;;;30.11;34.69;100025.31;4368197;32;34078;-82
2023/05/26 12:25:37;;;;;;;;;;;;;;;30.39;34.64;100028.22;4367049;32;33541;-83
2023/05/26 12:28:06;;;;;;;;;;;;;;;30.52;33.21;100022.09;4367655;32;35036;-82
2023/05/26 12:30:37;;;;;;;;;;;;;;;30.52;34.38;100020.19;4355716;32;33114;-82
2023/05/26 12:33:08;;;;;;;;;;;;;;;30.52;34.99;100016.63;4365761;32;34740;-82
2023/05/26 12:35:36;;;;;;;;;;;;;;;30.45;34.72;100008.38;4367133;32;33713;-83
2023/05/26 12:38:05;;;;;;;;;;;;;;;30.85;33.36;100011.59;4368939;32;33606;-82
2023/05/26 12:40:35;;;;;;;;;;;;;;;31.13;32.45;100003.47;4370187;32;33438;-82
2023/05/26 12:43:07;;;;;;;;;;;;;;;30.92;33.82;99998.88;4369479;32;33585;-82
2023/05/26 12:45:36;;;;;;;;;;;;;;;31.19;34.09;99999.97;4364903;32;33505;-82
2023/05/26 12:48:05;;;;;;;;;;;;;;;31.23;33.22;99995.81;4366567;32;33260;-82
2023/05/26 12:50:40;;;;;;;;;;;;;;;30.65;33.00;99992.25;4365941;32;33543;-82
2023/05/26 12:53:08;;;;;;;;;;;;;;;30.16;34.88;100000.25;4366351;32;34461;-82
2023/05/26 12:55:37;;;;;;;;;;;;;;;30.40;34.38;99994.50;4367472;32;35495;-82
2023/05/26 12:58:05;;;;;;;;;;;;;;;30.50;32.77;99986.03;4367780;32;34960;-82
2023/05/26 13:00:36;;;;;;;;;;;;;;;30.53;32.82;99985.66;4360691;32;33534;-82
2023/05/26 13:03:06;;;;;;;;;;;;;;;30.00;33.24;99987.63;4354457;32;34116;-83